sensor_id;sensor_type;location;lat;lon;timestamp;temperature;humidity
20504;DHT22;10410;51.046;6.980;2023-01-01T00:06:54;15.80;99.90
20504;DHT22;10410;51.046;6.980;2023-01-01T00:13:55;15.80;99.90
20504;DHT22;10410;51.046;6.980;2023-01-01T00:21:08;15.90;99.90
20504;DHT22;10410;51.046;6.980;2023-01-01T00:28:09;15.80;99.90
20504;DHT22;10410;51.046;6.980;2023-01-01T00:35:10;15.80;99.90
20504;DHT22;10410;51.046;6.980;2023-01-01T00:42:10;15.70;99.90
20504;DHT22;10410;51.046;6.980;2023-01-01T00:49:10;15.60;99.90
20504;DHT22;10410;51.046;6.980;2023-01-01T00:56:11;15.60;99.90
20504;DHT22;10410;51.046;6.980;2023-01-01T01:03:12;15.50;99.90
20504;DHT22;10410;51.046;6.980;2023-01-01T01:10:27;15.40;99.90
20504;DHT22;10410;51.046;6.980;2023-01-01T01:17:28;15.40;99.90
20504;DHT22;10410;51.046;6.980;2023-01-01T01:24:29;15.30;99.90
20504;DHT22;10410;51.046;6.980;2023-01-01T01:31:32;15.20;99.90
20504;DHT22;10410;51.046;6.980;2023-01-01T01:38:33;15.20;99.90
20504;DHT22;10410;51.046;6.980;2023-01-01T01:45:34;15.20;99.90
20504;DHT22;10410;51.046;6.980;2023-01-01T01:52:37;15.10;99.90
20504;DHT22;10410;51.046;6.980;2023-01-01T01:59:43;15.10;99.90
20504;DHT22;10410;51.046;6.980;2023-01-01T02:06:47;15.10;99.90
20504;DHT22;10410;51.046;6.980;2023-01-01T02:13:50;15.10;99.90
20504;DHT22;10410;51.046;6.980;2023-01-01T02:21:13;15.00;99.90
20504;DHT22;10410;51.046;6.980;2023-01-01T02:35:41;15.00;99.90
20504;DHT22;10410;51.046;6.980;2023-01-01T02:42:44;15.00;99.90
20504;DHT22;10410;51.046;6.980;2023-01-01T02:50:26;15.00;99.90
20504;DHT22;10410;51.046;6.980;2023-01-01T02:57:36;15.00;99.90
20504;DHT22;10410;51.046;6.980;2023-01-01T03:04:47;14.90;99.90
20504;DHT22;10410;51.046;6.980;2023-01-01T03:19:25;14.90;99.90
20504;DHT22;10410;51.046;6.980;2023-01-01T03:26:26;14.90;99.90
20504;DHT22;10410;51.046;6.980;2023-01-01T03:33:59;14.90;99.90
20504;DHT22;10410;51.046;6.980;2023-01-01T03:41:04;15.00;99.90
20504;DHT22;10410;51.046;6.980;2023-01-01T03:48:06;15.00;99.90
20504;DHT22;10410;51.046;6.980;2023-01-01T04:02:28;15.00;99.90
20504;DHT22;10410;51.046;6.980;2023-01-01T04:09:32;15.00;99.90
20504;DHT22;10410;51.046;6.980;2023-01-01T04:16:34;14.90;99.90
20504;DHT22;10410;51.046;6.980;2023-01-01T04:23:35;14.90;99.90
20504;DHT22;10410;51.046;6.980;2023-01-01T04:30:35;14.90;99.90
20504;DHT22;10410;51.046;6.980;2023-01-01T04:37:35;14.90;99.90
20504;DHT22;10410;51.046;6.980;2023-01-01T04:44:35;14.90;99.90
20504;DHT22;10410;51.046;6.980;2023-01-01T04:51:36;14.90;99.90
20504;DHT22;10410;51.046;6.980;2023-01-01T04:58:38;14.90;99.90
20504;DHT22;10410;51.046;6.980;2023-01-01T05:05:38;15.00;99.90
20504;DHT22;10410;51.046;6.980;2023-01-01T05:12:38;14.90;99.90
20504;DHT22;10410;51.046;6.980;2023-01-01T05:19:39;14.90;99.90
20504;DHT22;10410;51.046;6.980;2023-01-01T05:26:41;14.90;99.90
20504;DHT22;10410;51.046;6.980;2023-01-01T05:33:42;14.90;99.90
20504;DHT22;10410;51.046;6.980;2023-01-01T05:40:42;14.90;99.90
20504;DHT22;10410;51.046;6.980;2023-01-01T05:47:43;14.80;99.90
20504;DHT22;10410;51.046;6.980;2023-01-01T05:54:43;14.80;99.90
20504;DHT22;10410;51.046;6.980;2023-01-01T06:01:44;14.80;99.90
20504;DHT22;10410;51.046;6.980;2023-01-01T06:08:50;14.80;99.90
20504;DHT22;10410;51.046;6.980;2023-01-01T06:15:55;14.80;99.90
20504;DHT22;10410;51.046;6.980;2023-01-01T06:22:57;14.70;99.90
20504;DHT22;10410;51.046;6.980;2023-01-01T06:29:57;14.60;99.90
20504;DHT22;10410;51.046;6.980;2023-01-01T06:36:58;14.60;99.90
20504;DHT22;10410;51.046;6.980;2023-01-01T06:44:06;14.60;99.90
20504;DHT22;10410;51.046;6.980;2023-01-01T06:51:12;14.60;99.90
20504;DHT22;10410;51.046;6.980;2023-01-01T06:58:13;14.70;99.90
20504;DHT22;10410;51.046;6.980;2023-01-01T07:05:13;14.70;99.90
20504;DHT22;10410;51.046;6.980;2023-01-01T07:12:13;14.70;99.90
20504;DHT22;10410;51.046;6.980;2023-01-01T07:19:14;14.70;99.90
20504;DHT22;10410;51.046;6.980;2023-01-01T07:26:14;14.70;99.90
20504;DHT22;10410;51.046;6.980;2023-01-01T07:33:20;14.70;99.90
20504;DHT22;10410;51.046;6.980;2023-01-01T07:40:21;14.70;99.90
20504;DHT22;10410;51.046;6.980;2023-01-01T07:47:23;14.70;99.90
20504;DHT22;10410;51.046;6.980;2023-01-01T07:54:24;14.80;99.90
20504;DHT22;10410;51.046;6.980;2023-01-01T08:01:24;14.80;99.90
20504;DHT22;10410;51.046;6.980;2023-01-01T08:08:25;14.90;99.90
20504;DHT22;10410;51.046;6.980;2023-01-01T08:15:25;14.90;99.90
20504;DHT22;10410;51.046;6.980;2023-01-01T08:22:25;14.90;99.90
20504;DHT22;10410;51.046;6.980;2023-01-01T08:29:26;14.90;99.90
20504;DHT22;10410;51.046;6.980;2023-01-01T08:36:27;14.80;99.90
20504;DHT22;10410;51.046;6.980;2023-01-01T08:43:27;14.80;99.90
20504;DHT22;10410;51.046;6.980;2023-01-01T08:50:28;14.70;99.90
20504;DHT22;10410;51.046;6.980;2023-01-01T08:57:31;14.70;99.90
20504;DHT22;10410;51.046;6.980;2023-01-01T09:04:31;14.70;99.90
20504;DHT22;10410;51.046;6.980;2023-01-01T09:11:32;14.60;99.90
20504;DHT22;10410;51.046;6.980;2023-01-01T09:18:34;14.60;99.90
20504;DHT22;10410;51.046;6.980;2023-01-01T09:25:35;14.60;99.90
20504;DHT22;10410;51.046;6.980;2023-01-01T09:32:35;14.50;99.90
20504;DHT22;10410;51.046;6.980;2023-01-01T09:39:35;14.50;99.90
20504;DHT22;10410;51.046;6.980;2023-01-01T09:46:36;14.50;99.90
20504;DHT22;10410;51.046;6.980;2023-01-01T09:53:41;14.50;99.90
20504;DHT22;10410;51.046;6.980;2023-01-01T10:00:46;14.50;99.90
20504;DHT22;10410;51.046;6.980;2023-01-01T10:15:24;14.60;99.90
20504;DHT22;10410;51.046;6.980;2023-01-01T10:22:40;14.60;99.90
20504;DHT22;10410;51.046;6.980;2023-01-01T10:29:47;14.60;99.90
20504;DHT22;10410;51.046;6.980;2023-01-01T10:36:52;14.70;99.90
20504;DHT22;10410;51.046;6.980;2023-01-01T10:43:52;14.60;99.90
20504;DHT22;10410;51.046;6.980;2023-01-01T10:57:58;14.60;99.90
20504;DHT22;10410;51.046;6.980;2023-01-01T11:05:19;14.60;99.90
20504;DHT22;10410;51.046;6.980;2023-01-01T11:12:27;14.70;99.90
20504;DHT22;10410;51.046;6.980;2023-01-01T11:19:49;14.70;99.90
20504;DHT22;10410;51.046;6.980;2023-01-01T11:27:19;14.70;99.90
20504;DHT22;10410;51.046;6.980;2023-01-01T11:34:27;14.70;99.90
20504;DHT22;10410;51.046;6.980;2023-01-01T11:41:28;14.80;99.90
20504;DHT22;10410;51.046;6.980;2023-01-01T11:48:32;14.70;99.90
20504;DHT22;10410;51.046;6.980;2023-01-01T11:55:39;14.80;99.90
20504;DHT22;10410;51.046;6.980;2023-01-01T12:02:54;14.80;99.90
20504;DHT22;10410;51.046;6.980;2023-01-01T12:10:03;14.80;99.90
20504;DHT22;10410;51.046;6.980;2023-01-01T12:17:25;14.70;99.90
20504;DHT22;10410;51.046;6.980;2023-01-01T12:24:32;14.80;99.90
20504;DHT22;10410;51.046;6.980;2023-01-01T12:31:55;14.80;99.90
20504;DHT22;10410;51.046;6.980;2023-01-01T12:46:36;14.80;99.90
20504;DHT22;10410;51.046;6.980;2023-01-01T12:53:46;14.70;99.90
20504;DHT22;10410;51.046;6.980;2023-01-01T13:00:57;14.70;99.90
20504;DHT22;10410;51.046;6.980;2023-01-01T13:07:59;14.70;99.90
20504;DHT22;10410;51.046;6.980;2023-01-01T13:22:37;14.60;99.90
20504;DHT22;10410;51.046;6.980;2023-01-01T13:29:42;14.60;99.90
20504;DHT22;10410;51.046;6.980;2023-01-01T13:36:43;14.60;99.90
20504;DHT22;10410;51.046;6.980;2023-01-01T13:43:44;14.60;99.90
20504;DHT22;10410;51.046;6.980;2023-01-01T14:05:52;14.60;99.90
20504;DHT22;10410;51.046;6.980;2023-01-01T14:13:21;14.60;99.90
20504;DHT22;10410;51.046;6.980;2023-01-01T14:20:52;14.60;99.90
20504;DHT22;10410;51.046;6.980;2023-01-01T14:27:54;14.60;99.90
20504;DHT22;10410;51.046;6.980;2023-01-01T14:35:00;14.60;99.90
20504;DHT22;10410;51.046;6.980;2023-01-01T14:42:06;14.60;99.90
20504;DHT22;10410;51.046;6.980;2023-01-01T14:49:09;14.60;99.90
20504;DHT22;10410;51.046;6.980;2023-01-01T15:03:26;14.60;99.90
20504;DHT22;10410;51.046;6.980;2023-01-01T15:10:28;14.60;99.90
20504;DHT22;10410;51.046;6.980;2023-01-01T15:17:44;14.60;99.90
20504;DHT22;10410;51.046;6.980;2023-01-01T15:24:45;14.50;99.90
20504;DHT22;10410;51.046;6.980;2023-01-01T15:31:49;14.50;99.90
20504;DHT22;10410;51.046;6.980;2023-01-01T15:38:53;14.40;99.90
20504;DHT22;10410;51.046;6.980;2023-01-01T15:46:17;14.20;99.90
20504;DHT22;10410;51.046;6.980;2023-01-01T15:53:22;14.00;99.90
20504;DHT22;10410;51.046;6.980;2023-01-01T16:00:29;13.80;99.90
20504;DHT22;10410;51.046;6.980;2023-01-01T16:07:30;13.70;99.90
20504;DHT22;10410;51.046;6.980;2023-01-01T16:14:31;13.60;99.90
20504;DHT22;10410;51.046;6.980;2023-01-01T16:21:31;13.40;99.90
20504;DHT22;10410;51.046;6.980;2023-01-01T16:28:32;13.30;99.90
20504;DHT22;10410;51.046;6.980;2023-01-01T16:35:32;13.20;99.90
20504;DHT22;10410;51.046;6.980;2023-01-01T16:42:32;13.00;99.90
20504;DHT22;10410;51.046;6.980;2023-01-01T16:49:33;12.90;99.90
20504;DHT22;10410;51.046;6.980;2023-01-01T16:56:33;12.70;99.90
20504;DHT22;10410;51.046;6.980;2023-01-01T17:03:34;12.60;99.90
20504;DHT22;10410;51.046;6.980;2023-01-01T17:10:34;12.50;99.90
20504;DHT22;10410;51.046;6.980;2023-01-01T17:17:35;12.40;99.90
20504;DHT22;10410;51.046;6.980;2023-01-01T17:24:37;12.30;99.90
20504;DHT22;10410;51.046;6.980;2023-01-01T17:31:38;12.30;99.90
20504;DHT22;10410;51.046;6.980;2023-01-01T17:38:38;12.20;99.90
20504;DHT22;10410;51.046;6.980;2023-01-01T17:45:38;12.20;99.90
20504;DHT22;10410;51.046;6.980;2023-01-01T17:52:39;12.10;99.90
20504;DHT22;10410;51.046;6.980;2023-01-01T17:59:39;12.00;99.90
20504;DHT22;10410;51.046;6.980;2023-01-01T18:06:40;12.00;99.90
20504;DHT22;10410;51.046;6.980;2023-01-01T18:13:43;11.90;99.90
20504;DHT22;10410;51.046;6.980;2023-01-01T18:20:44;11.90;99.90
20504;DHT22;10410;51.046;6.980;2023-01-01T18:27:44;11.80;99.90
20504;DHT22;10410;51.046;6.980;2023-01-01T18:34:44;11.80;99.90
20504;DHT22;10410;51.046;6.980;2023-01-01T18:42:15;11.80;99.90
20504;DHT22;10410;51.046;6.980;2023-01-01T18:49:17;11.70;99.90
20504;DHT22;10410;51.046;6.980;2023-01-01T18:56:17;11.70;99.90
20504;DHT22;10410;51.046;6.980;2023-01-01T19:03:20;11.60;99.90
20504;DHT22;10410;51.046;6.980;2023-01-01T19:10:51;11.50;99.90
20504;DHT22;10410;51.046;6.980;2023-01-01T19:17:55;11.50;99.90
20504;DHT22;10410;51.046;6.980;2023-01-01T19:24:56;11.50;99.90
20504;DHT22;10410;51.046;6.980;2023-01-01T19:31:58;11.50;99.90
20504;DHT22;10410;51.046;6.980;2023-01-01T19:38:58;11.50;99.90
20504;DHT22;10410;51.046;6.980;2023-01-01T19:45:59;11.60;99.90
20504;DHT22;10410;51.046;6.980;2023-01-01T19:52:59;11.50;99.90
20504;DHT22;10410;51.046;6.980;2023-01-01T20:00:00;11.50;99.90
20504;DHT22;10410;51.046;6.980;2023-01-01T20:07:00;11.50;99.90
20504;DHT22;10410;51.046;6.980;2023-01-01T20:14:01;11.50;99.90
20504;DHT22;10410;51.046;6.980;2023-01-01T20:21:02;11.50;99.90
20504;DHT22;10410;51.046;6.980;2023-01-01T20:28:26;11.50;99.90
20504;DHT22;10410;51.046;6.980;2023-01-01T20:35:45;11.50;99.90
20504;DHT22;10410;51.046;6.980;2023-01-01T20:43:04;11.60;99.90
20504;DHT22;10410;51.046;6.980;2023-01-01T20:50:05;11.60;99.90
20504;DHT22;10410;51.046;6.980;2023-01-01T20:57:05;11.60;99.90
20504;DHT22;10410;51.046;6.980;2023-01-01T21:04:05;11.60;99.90
20504;DHT22;10410;51.046;6.980;2023-01-01T21:11:06;11.70;99.90
20504;DHT22;10410;51.046;6.980;2023-01-01T21:18:10;11.60;99.90
20504;DHT22;10410;51.046;6.980;2023-01-01T21:25:24;11.70;99.90
20504;DHT22;10410;51.046;6.980;2023-01-01T21:32:47;11.70;99.90
20504;DHT22;10410;51.046;6.980;2023-01-01T21:39:48;11.80;99.90
20504;DHT22;10410;51.046;6.980;2023-01-01T21:46:48;11.80;99.90
20504;DHT22;10410;51.046;6.980;2023-01-01T22:01:34;11.90;99.90
20504;DHT22;10410;51.046;6.980;2023-01-01T22:08:36;12.00;99.90
20504;DHT22;10410;51.046;6.980;2023-01-01T22:15:40;12.10;99.90
20504;DHT22;10410;51.046;6.980;2023-01-01T22:22:41;12.10;99.90
20504;DHT22;10410;51.046;6.980;2023-01-01T22:29:43;12.20;99.90
20504;DHT22;10410;51.046;6.980;2023-01-01T22:36:44;12.30;99.90
20504;DHT22;10410;51.046;6.980;2023-01-01T22:43:45;12.30;99.90
20504;DHT22;10410;51.046;6.980;2023-01-01T22:50:47;12.40;99.90
20504;DHT22;10410;51.046;6.980;2023-01-01T22:57:48;12.40;99.90
20504;DHT22;10410;51.046;6.980;2023-01-01T23:04:48;12.50;99.90
20504;DHT22;10410;51.046;6.980;2023-01-01T23:11:49;12.50;99.90
20504;DHT22;10410;51.046;6.980;2023-01-01T23:18:49;12.60;99.90
20504;DHT22;10410;51.046;6.980;2023-01-01T23:25:50;12.70;99.90
20504;DHT22;10410;51.046;6.980;2023-01-01T23:32:51;12.70;99.90
20504;DHT22;10410;51.046;6.980;2023-01-01T23:39:51;12.80;99.90
20504;DHT22;10410;51.046;6.980;2023-01-01T23:46:52;12.90;99.90
20504;DHT22;10410;51.046;6.980;2023-01-01T23:53:53;12.90;99.90
